Lake Minchumina, Alaska
Current Conditions -  °F | °C
As of 6:56 AM on Saturday 22 Nov 2014 (Local Time) from PAFS Reporting Station
Light Snow Light Snow  
Wind Chill:   Ceiling: Unl
Heat Index:   Visibility: 10mi
Dew Point: -3°   Wind: 0mph
Humidity: 58%   Direction: NA
Pressure: 29.17"   Gusts: NA
Location:  63.89°N, 152.36°W
Report Text: PAFS 221556Z AUTO 00000KT 10SM -SN CLR M13/M19 A2917 RMK AO2 TSNO T11271194 SNE03B49 P0000 SLP894 $
Loading
Personal Weather Stations






























Interactive Weather Map New forecast layout! Learn more

10-Day Weather Forecast

Advertisements
Track Severe Weather on mobile